createdAt,value
2022-09-05T00:00:19.761Z,53.55
2022-09-05T00:02:55.686Z,53.75
2022-09-05T00:05:41.298Z,53.88
2022-09-05T00:08:30.862Z,53.44
2022-09-05T00:11:39.767Z,53.86
2022-09-05T00:14:34.347Z,54.02
2022-09-05T00:17:21.128Z,54.20
2022-09-05T00:24:19.005Z,54.27
2022-09-05T00:24:32.906Z,54.61
2022-09-05T00:26:03.559Z,54.94
2022-09-05T00:28:40.631Z,54.95
2022-09-05T00:31:54.937Z,54.90
2022-09-05T00:34:22.337Z,54.89
2022-09-05T00:36:55.078Z,55.12
2022-09-05T00:39:25.903Z,55.09
2022-09-05T00:41:57.030Z,55.05
2022-09-05T00:44:27.076Z,55.29
2022-09-05T00:47:01.487Z,55.32
2022-09-05T00:49:36.438Z,55.46
2022-09-05T00:52:07.382Z,55.41
2022-09-05T00:55:00.541Z,55.60
2022-09-05T00:57:46.874Z,55.93
2022-09-05T01:00:18.145Z,55.79
2022-09-05T01:03:17.950Z,56.01
2022-09-05T01:06:13.953Z,55.99
2022-09-05T01:09:07.671Z,56.08
2022-09-05T01:11:45.372Z,56.36
2022-09-05T01:14:27.458Z,56.28
2022-09-05T01:17:22.403Z,56.22
2022-09-05T01:20:18.958Z,56.48
2022-09-05T01:23:19.812Z,56.51
2022-09-05T01:26:18.858Z,56.60
2022-09-05T01:29:16.678Z,56.44
2022-09-05T01:32:01.670Z,56.99
2022-09-05T01:34:39.362Z,57.05
2022-09-05T01:37:32.972Z,57.12
2022-09-05T01:40:16.839Z,57.18
2022-09-05T01:42:55.984Z,57.42
2022-09-05T01:45:39.232Z,57.35
2022-09-05T01:48:11.907Z,57.71
2022-09-05T01:50:48.396Z,57.65
2022-09-05T01:53:26.253Z,57.47
2022-09-05T01:56:11.662Z,57.98
2022-09-05T01:58:54.586Z,57.79
2022-09-05T02:01:35.835Z,57.79
2022-09-05T02:04:29.641Z,57.86
2022-09-05T02:07:29.908Z,58.28
2022-09-05T02:10:11.937Z,58.10
2022-09-05T02:13:01.850Z,58.13
2022-09-05T02:15:59.509Z,58.11
2022-09-05T02:18:49.182Z,58.46
2022-09-05T02:21:25.557Z,58.48
2022-09-05T02:24:02.689Z,58.75
2022-09-05T02:26:34.673Z,58.79
2022-09-05T02:29:11.395Z,58.75
2022-09-05T02:31:46.929Z,58.87
2022-09-05T02:34:21.778Z,58.76
2022-09-05T02:36:55.202Z,58.98
2022-09-05T02:45:01.378Z,59.01
2022-09-05T02:45:12.666Z,59.11
2022-09-05T02:45:28.268Z,59.69
2022-09-05T02:48:04.184Z,59.69
2022-09-05T02:52:57.949Z,59.73
2022-09-05T02:57:40.980Z,59.84
2022-09-05T02:58:04.907Z,60.15
2022-09-05T03:00:03.149Z,60.31
2022-09-05T03:02:37.173Z,60.29
2022-09-05T03:05:11.882Z,60.39
2022-09-05T03:08:07.902Z,60.33
2022-09-05T03:11:16.682Z,60.48
2022-09-05T03:14:24.547Z,60.62
2022-09-05T03:17:21.508Z,60.70
2022-09-05T03:20:25.147Z,60.73
2022-09-05T03:23:24.195Z,60.72
2022-09-05T03:26:42.696Z,61.13
2022-09-05T03:29:41.696Z,60.78
2022-09-05T03:32:51.735Z,61.15
2022-09-05T03:35:54.888Z,61.20
2022-09-05T03:39:14.993Z,60.92
2022-09-05T03:42:14.939Z,61.01
2022-09-05T03:44:57.366Z,60.88
2022-09-05T03:48:02.280Z,61.06
2022-09-05T03:55:42.709Z,61.21
2022-09-05T03:57:17.335Z,61.00
2022-09-05T03:57:38.501Z,61.38
2022-09-05T04:00:18.079Z,61.36
2022-09-05T04:07:08.711Z,61.69
2022-09-05T04:08:27.565Z,61.75
2022-09-05T04:08:46.388Z,61.84
2022-09-05T04:11:16.730Z,61.81
2022-09-05T04:13:49.315Z,61.98
2022-09-05T04:16:21.381Z,62.34
2022-09-05T04:18:53.027Z,62.34
2022-09-05T04:21:25.563Z,62.47
2022-09-05T04:24:02.781Z,62.45
2022-09-05T04:26:56.334Z,62.44
2022-09-05T04:29:33.199Z,62.56
2022-09-05T04:32:17.966Z,62.70
2022-09-05T04:34:59.756Z,62.69
2022-09-05T04:37:48.189Z,62.92
2022-09-05T04:40:35.649Z,63.04
2022-09-05T04:43:06.643Z,62.98
2022-09-05T04:45:41.984Z,63.20
2022-09-05T04:48:15.826Z,63.31
2022-09-05T04:51:03.086Z,63.40
2022-09-05T04:53:39.483Z,63.23
2022-09-05T04:56:12.435Z,63.69
2022-09-05T04:59:32.727Z,63.42
2022-09-05T05:06:12.240Z,63.35
2022-09-05T05:06:17.342Z,63.56
2022-09-05T05:07:21.126Z,63.55
2022-09-05T05:10:19.489Z,63.71
2022-09-05T05:17:54.817Z,63.42
2022-09-05T05:18:11.489Z,63.54
2022-09-05T05:18:55.995Z,63.83
2022-09-05T05:21:33.289Z,63.97
2022-09-05T05:24:09.386Z,63.91
2022-09-05T05:26:49.459Z,64.22
2022-09-05T05:29:27.192Z,63.92
2022-09-05T05:31:56.824Z,64.16
2022-09-05T05:34:26.235Z,64.28
2022-09-05T05:37:00.774Z,64.46
2022-09-05T05:39:29.481Z,64.67
2022-09-05T05:41:58.153Z,64.81
2022-09-05T05:44:27.994Z,64.83
2022-09-05T05:47:00.112Z,64.91
2022-09-05T05:49:45.506Z,65.09
2022-09-05T05:52:42.646Z,65.37
2022-09-05T05:55:52.298Z,65.21
2022-09-05T05:58:32.998Z,65.14
2022-09-05T06:01:44.158Z,65.46
2022-09-05T06:04:44.719Z,65.45
2022-09-05T06:07:22.643Z,65.52
2022-09-05T06:14:48.846Z,65.23
2022-09-05T06:15:02.193Z,66.99
2022-09-05T06:16:58.324Z,65.84
2022-09-05T06:21:18.165Z,65.82
2022-09-05T06:23:08.315Z,65.97
2022-09-05T06:26:18.508Z,65.51
2022-09-05T06:29:00.568Z,65.88
2022-09-05T06:31:48.045Z,65.50
2022-09-05T06:34:35.845Z,65.61
2022-09-05T06:37:13.252Z,65.67
2022-09-05T06:40:00.694Z,65.35
2022-09-05T06:42:42.948Z,65.59
2022-09-05T06:45:38.147Z,65.59
2022-09-05T06:48:24.952Z,65.35
2022-09-05T06:52:11.724Z,65.67
2022-09-05T06:55:12.557Z,65.25
2022-09-05T06:58:15.420Z,65.38
2022-09-05T07:00:46.671Z,65.14
2022-09-05T07:03:26.721Z,65.05
2022-09-05T07:05:58.689Z,64.80
2022-09-05T07:08:34.827Z,64.87
2022-09-05T07:11:15.009Z,64.61
2022-09-05T07:13:58.182Z,64.68
2022-09-05T07:16:38.917Z,64.43
2022-09-05T07:19:19.228Z,64.66
2022-09-05T07:22:00.714Z,64.14
2022-09-05T07:24:54.037Z,64.76
2022-09-05T07:27:28.873Z,64.35
2022-09-05T07:30:01.086Z,63.76
2022-09-05T07:32:31.501Z,63.96
2022-09-05T07:35:02.744Z,63.91
2022-09-05T07:37:36.946Z,63.32
2022-09-05T07:40:26.327Z,63.40
2022-09-05T07:43:08.695Z,63.00
2022-09-05T07:45:50.832Z,63.00
2022-09-05T07:48:34.221Z,62.67
2022-09-05T07:56:46.407Z,62.38
2022-09-05T07:57:01.482Z,62.20
2022-09-05T07:57:15.540Z,62.33
2022-09-05T07:59:35.039Z,62.30
2022-09-05T08:02:06.517Z,62.27
2022-09-05T08:04:35.828Z,62.45
2022-09-05T08:07:48.309Z,62.06
2022-09-05T08:10:08.904Z,61.77
2022-09-05T08:13:22.838Z,61.61
2022-09-05T08:16:00.727Z,61.69
2022-09-05T08:18:23.867Z,60.74
2022-09-05T08:20:55.094Z,60.97
2022-09-05T08:23:42.315Z,60.89
2022-09-05T08:26:12.367Z,61.10
2022-09-05T08:28:54.043Z,60.69
2022-09-05T08:31:26.544Z,60.16
2022-09-05T08:33:59.798Z,60.15
2022-09-05T08:36:33.096Z,59.51
2022-09-05T08:39:06.408Z,59.29
2022-09-05T08:41:51.038Z,59.18
2022-09-05T08:46:42.801Z,58.81
2022-09-05T08:47:26.280Z,59.04
2022-09-05T08:50:17.378Z,58.65
2022-09-05T08:52:56.231Z,58.65
2022-09-05T08:55:34.256Z,58.35
2022-09-05T08:58:29.810Z,58.04
2022-09-05T09:01:07.798Z,58.01
2022-09-05T09:03:53.605Z,57.01
2022-09-05T09:06:39.419Z,57.07
2022-09-05T09:09:14.092Z,56.97
2022-09-05T09:11:44.428Z,56.87
2022-09-05T09:14:49.887Z,55.99
2022-09-05T09:17:28.361Z,56.06
2022-09-05T09:20:29.844Z,55.76
2022-09-05T09:23:03.260Z,55.33
2022-09-05T09:25:37.333Z,55.08
2022-09-05T09:28:49.405Z,54.90
2022-09-05T09:31:22.811Z,54.16
2022-09-05T09:33:59.824Z,54.30
2022-09-05T09:36:57.543Z,53.75
2022-09-05T09:39:39.596Z,53.43
2022-09-05T09:42:38.638Z,53.25
2022-09-05T09:45:28.490Z,53.70
2022-09-05T09:48:34.354Z,52.96
2022-09-05T09:51:20.015Z,53.34
2022-09-05T09:54:01.845Z,52.50
2022-09-05T09:57:07.798Z,49.28
2022-09-05T10:00:09.701Z,49.70
2022-09-05T10:06:50.958Z,46.69
2022-09-05T10:10:45.324Z,44.67
2022-09-05T10:10:58.570Z,44.72
2022-09-05T10:13:08.260Z,41.24
2022-09-05T10:15:52.700Z,41.37
2022-09-05T10:18:55.106Z,37.67
2022-09-05T10:25:19.287Z,35.36
2022-09-05T10:28:15.012Z,33.76
2022-09-05T10:32:10.324Z,36.40
2022-09-05T10:35:17.775Z,34.62
2022-09-05T10:36:35.024Z,33.99
2022-09-05T10:39:22.545Z,31.45
2022-09-05T10:41:57.216Z,32.27
2022-09-05T10:44:45.714Z,30.17
2022-09-05T10:47:33.065Z,31.08
2022-09-05T10:50:15.016Z,30.77
2022-09-05T10:53:26.592Z,29.81
2022-09-05T10:56:09.618Z,28.30
2022-09-05T11:02:15.749Z,29.85
2022-09-05T11:02:27.234Z,29.56
2022-09-05T11:04:49.566Z,27.06
2022-09-05T11:07:45.693Z,27.93
2022-09-05T11:10:33.184Z,27.26
2022-09-05T11:13:16.163Z,27.36
2022-09-05T11:16:16.709Z,26.49
2022-09-05T11:19:03.991Z,25.95
2022-09-05T11:22:13.797Z,25.90
2022-09-05T11:24:56.970Z,26.63
2022-09-05T11:27:35.242Z,27.18
2022-09-05T11:30:09.243Z,27.60
2022-09-05T11:37:04.244Z,27.59
2022-09-05T11:40:02.214Z,28.36
2022-09-05T11:40:28.520Z,27.70
2022-09-05T11:43:11.786Z,28.83
2022-09-05T11:46:08.931Z,28.45
2022-09-05T11:49:14.414Z,29.25
2022-09-05T11:52:37.370Z,29.46
2022-09-05T11:55:26.144Z,28.75
2022-09-05T11:58:43.698Z,28.92
2022-09-05T12:01:41.114Z,29.10
2022-09-05T12:04:28.975Z,28.63
2022-09-05T12:07:31.820Z,27.99
2022-09-05T12:10:46.752Z,29.24
2022-09-05T12:13:24.543Z,27.78
2022-09-05T12:16:07.561Z,28.02
2022-09-05T12:18:44.673Z,27.72
2022-09-05T12:21:31.675Z,28.42
2022-09-05T12:25:15.385Z,28.33
2022-09-05T12:27:38.397Z,27.28
2022-09-05T12:30:15.423Z,26.14
2022-09-05T12:35:50.031Z,25.59
2022-09-05T12:40:44.519Z,24.58
2022-09-05T12:40:55.473Z,24.88
2022-09-05T12:42:51.165Z,24.91
2022-09-05T12:45:47.623Z,24.65
2022-09-05T12:48:43.730Z,24.71
2022-09-05T12:51:45.334Z,24.99
2022-09-05T12:54:33.477Z,25.40
2022-09-05T13:01:12.773Z,25.50
2022-09-05T13:03:08.336Z,25.69
2022-09-05T13:03:37.832Z,26.15
2022-09-05T13:06:04.927Z,26.50
2022-09-05T13:08:46.985Z,26.38
2022-09-05T13:14:52.311Z,26.47
2022-09-05T13:17:17.373Z,27.24
2022-09-05T13:19:48.539Z,27.28
2022-09-05T13:22:23.814Z,26.62
2022-09-05T13:25:01.352Z,27.14
2022-09-05T13:27:37.414Z,27.09
2022-09-05T13:32:43.502Z,26.08
2022-09-05T13:38:01.343Z,25.26
2022-09-05T13:38:07.303Z,24.56
2022-09-05T13:42:29.357Z,24.42
2022-09-05T13:45:08.310Z,24.70
2022-09-05T13:48:07.361Z,24.12
2022-09-05T13:51:12.195Z,24.12
2022-09-05T13:53:53.829Z,25.22
2022-09-05T13:56:53.428Z,24.94
2022-09-05T14:09:38.524Z,26.33
2022-09-05T14:12:33.882Z,26.82
2022-09-05T14:25:45.330Z,26.52
2022-09-05T14:28:56.148Z,26.08
2022-09-05T14:37:37.006Z,25.63
2022-09-05T14:37:40.625Z,25.57
2022-09-05T14:48:33.017Z,26.68
2022-09-05T14:52:02.891Z,25.47
2022-09-05T14:55:23.858Z,24.84
2022-09-05T15:02:51.031Z,25.33
2022-09-05T15:07:36.215Z,24.65
2022-09-05T15:12:18.559Z,23.83
2022-09-05T15:13:42.894Z,24.48
2022-09-05T15:16:25.065Z,25.52
2022-09-05T15:22:33.423Z,25.90
2022-09-05T15:25:17.087Z,26.67
2022-09-05T15:28:26.276Z,27.38
2022-09-05T15:31:33.942Z,28.22
2022-09-05T15:34:24.380Z,28.53
2022-09-05T15:37:09.012Z,28.99
2022-09-05T15:46:17.142Z,30.03
2022-09-05T15:48:56.900Z,30.27
2022-09-05T15:54:53.804Z,31.01
2022-09-05T15:58:27.297Z,31.38
2022-09-05T16:01:30.545Z,31.26
2022-09-05T16:10:41.146Z,32.50
2022-09-05T16:10:44.978Z,32.01
2022-09-05T16:12:45.036Z,32.42
2022-09-05T16:19:20.768Z,33.23
2022-09-05T16:23:14.097Z,34.26
2022-09-05T16:23:23.590Z,34.13
2022-09-05T16:24:58.630Z,34.65
2022-09-05T16:27:47.582Z,35.02
2022-09-05T16:30:26.482Z,34.71
2022-09-05T16:33:02.546Z,34.59
2022-09-05T16:35:42.917Z,34.60
2022-09-05T16:38:25.946Z,34.18
2022-09-05T16:41:21.029Z,34.52
2022-09-05T16:44:05.180Z,35.34
2022-09-05T16:46:43.060Z,34.82
2022-09-05T16:49:43.020Z,34.22
2022-09-05T16:52:35.709Z,33.66
2022-09-05T16:55:18.409Z,33.57
2022-09-05T16:58:14.244Z,34.00
2022-09-05T17:01:00.488Z,34.16
2022-09-05T17:03:37.596Z,35.01
2022-09-05T17:06:25.948Z,35.34
2022-09-05T17:09:30.705Z,35.67
2022-09-05T17:12:19.062Z,35.70
2022-09-05T17:15:01.045Z,36.36
2022-09-05T17:18:19.790Z,36.77
2022-09-05T17:20:36.080Z,36.95
2022-09-05T17:27:19.925Z,37.18
2022-09-05T17:29:31.431Z,37.40
2022-09-05T17:31:23.752Z,38.10
2022-09-05T17:32:56.863Z,37.53
2022-09-05T17:36:08.439Z,38.00
2022-09-05T17:39:07.514Z,38.65
2022-09-05T17:42:08.758Z,39.17
2022-09-05T17:44:48.638Z,39.50
2022-09-05T17:47:35.894Z,39.55
2022-09-05T17:50:57.268Z,39.93
2022-09-05T17:53:38.889Z,39.58
2022-09-05T17:56:27.859Z,40.11
2022-09-05T17:59:09.652Z,39.93
2022-09-05T18:01:48.552Z,39.77
2022-09-05T18:04:49.915Z,40.57
2022-09-05T18:07:48.363Z,41.59
2022-09-05T18:10:27.836Z,40.81
2022-09-05T18:13:32.688Z,41.11
2022-09-05T18:16:12.037Z,40.93
2022-09-05T18:19:33.241Z,40.97
2022-09-05T18:21:51.737Z,41.98
2022-09-05T18:28:03.642Z,41.47
2022-09-05T18:30:38.301Z,41.85
2022-09-05T18:33:53.273Z,42.20
2022-09-05T18:36:34.101Z,42.91
2022-09-05T18:39:40.518Z,42.73
2022-09-05T18:42:26.230Z,43.26
2022-09-05T18:45:14.876Z,43.46
2022-09-05T18:47:59.493Z,43.65
2022-09-05T18:50:34.397Z,44.11
2022-09-05T18:53:09.349Z,44.72
2022-09-05T18:56:12.706Z,44.78
2022-09-05T18:58:51.614Z,44.94
2022-09-05T19:01:28.557Z,44.94
2022-09-05T19:04:01.159Z,45.26
2022-09-05T19:06:45.126Z,45.75
2022-09-05T19:09:26.704Z,45.90
2022-09-05T19:12:31.623Z,45.95
2022-09-05T19:14:55.966Z,46.25
2022-09-05T19:17:36.708Z,46.06
2022-09-05T19:20:47.328Z,46.63
2022-09-05T19:23:22.956Z,46.71
2022-09-05T19:25:54.405Z,46.83
2022-09-05T19:36:57.052Z,47.16
2022-09-05T19:36:59.133Z,46.77
2022-09-05T19:37:12.155Z,47.38
2022-09-05T19:42:08.160Z,47.60
2022-09-05T19:47:35.379Z,48.06
2022-09-05T19:47:37.190Z,47.89
2022-09-05T19:48:35.822Z,47.98
2022-09-05T19:51:16.075Z,47.79
2022-09-05T19:54:04.930Z,48.03
2022-09-05T19:57:07.869Z,48.33
2022-09-05T19:59:45.186Z,48.23
2022-09-05T20:02:46.469Z,48.94
2022-09-05T20:05:50.948Z,48.66
2022-09-05T20:08:32.091Z,48.59
2022-09-05T20:11:37.434Z,49.65
2022-09-05T20:14:46.814Z,49.12
2022-09-05T20:17:43.100Z,49.11
2022-09-05T20:20:17.428Z,48.96
2022-09-05T20:22:53.691Z,49.25
2022-09-05T20:25:35.202Z,49.23
2022-09-05T20:28:07.166Z,49.57
2022-09-05T20:30:43.229Z,50.04
2022-09-05T20:33:19.407Z,49.56
2022-09-05T20:40:16.585Z,49.94
2022-09-05T20:43:16.042Z,50.14
2022-09-05T20:43:32.029Z,50.14
2022-09-05T20:44:22.712Z,50.38
2022-09-05T20:51:27.942Z,50.24
2022-09-05T20:54:16.034Z,50.27
2022-09-05T20:54:20.342Z,50.56
2022-09-05T20:55:39.731Z,50.62
2022-09-05T20:58:13.087Z,50.78
2022-09-05T21:01:15.723Z,50.95
2022-09-05T21:03:57.782Z,51.34
2022-09-05T21:06:34.395Z,51.24
2022-09-05T21:09:24.386Z,51.92
2022-09-05T21:11:56.366Z,51.52
2022-09-05T21:14:29.679Z,51.59
2022-09-05T21:17:14.791Z,51.72
2022-09-05T21:20:01.175Z,51.54
2022-09-05T21:22:38.212Z,51.44
2022-09-05T21:25:23.941Z,51.87
2022-09-05T21:28:03.262Z,51.80
2022-09-05T21:30:34.730Z,51.91
2022-09-05T21:33:07.110Z,51.99
2022-09-05T21:35:44.468Z,51.87
2022-09-05T21:38:13.821Z,52.03
2022-09-05T21:40:41.449Z,52.06
2022-09-05T21:47:34.398Z,51.95
2022-09-05T21:47:43.873Z,52.23
2022-09-05T21:48:56.639Z,52.11
2022-09-05T21:51:25.310Z,52.13
2022-09-05T21:55:10.710Z,51.85
2022-09-05T21:59:21.157Z,52.27
2022-09-05T21:59:45.414Z,51.90
2022-09-05T22:02:13.648Z,51.98
2022-09-05T22:04:43.272Z,52.22
2022-09-05T22:07:12.113Z,51.80
2022-09-05T22:09:39.180Z,51.96
2022-09-05T22:12:14.560Z,51.94
2022-09-05T22:14:53.150Z,52.32
2022-09-05T22:17:22.955Z,51.93
2022-09-05T22:19:49.633Z,51.79
2022-09-05T22:22:20.155Z,52.00
2022-09-05T22:24:52.460Z,51.76
2022-09-05T22:27:21.093Z,51.58
2022-09-05T22:29:50.674Z,51.90
2022-09-05T22:32:18.994Z,51.55
2022-09-05T22:35:15.762Z,51.62
2022-09-05T22:37:59.313Z,51.64
2022-09-05T22:40:27.719Z,51.68
2022-09-05T22:42:55.648Z,51.71
2022-09-05T22:45:22.331Z,51.61
2022-09-05T22:47:49.161Z,51.76
2022-09-05T22:50:16.025Z,52.02
2022-09-05T22:52:46.732Z,51.97
2022-09-05T22:55:15.456Z,51.66
2022-09-05T22:57:43.764Z,51.88
2022-09-05T23:00:11.656Z,51.86
2022-09-05T23:02:38.604Z,51.61
2022-09-05T23:05:06.976Z,51.69
2022-09-05T23:07:33.754Z,51.63
2022-09-05T23:10:00.626Z,51.75
2022-09-05T23:12:28.822Z,51.88
2022-09-05T23:14:55.722Z,51.92
2022-09-05T23:17:24.084Z,52.11
2022-09-05T23:19:50.778Z,52.14
2022-09-05T23:22:26.145Z,52.47
2022-09-05T23:24:54.161Z,52.53
2022-09-05T23:27:20.890Z,52.73
2022-09-05T23:29:49.178Z,52.57
2022-09-05T23:32:15.960Z,52.86
2022-09-05T23:34:42.702Z,52.88
2022-09-05T23:37:09.546Z,53.25
2022-09-05T23:39:36.438Z,53.10
2022-09-05T23:42:03.679Z,53.30
2022-09-05T23:44:30.394Z,53.07
2022-09-05T23:47:00.321Z,53.15
2022-09-05T23:49:27.071Z,53.33
2022-09-05T23:51:56.766Z,53.52
2022-09-05T23:54:23.640Z,53.50
2022-09-05T23:56:50.469Z,53.90
2022-09-05T23:59:17.177Z,53.89
